createdAt,value
2017-12-15T00:00:01.828Z,20.74
2017-12-15T00:01:01.807Z,20.79
2017-12-15T00:02:01.764Z,20.73
2017-12-15T00:03:01.745Z,20.70
2017-12-15T00:04:01.751Z,20.66
2017-12-15T00:05:01.703Z,20.69
2017-12-15T00:06:01.690Z,20.64
2017-12-15T00:07:01.663Z,20.64
2017-12-15T00:08:01.644Z,20.64
2017-12-15T00:09:01.635Z,20.52
2017-12-15T00:10:01.630Z,20.54
2017-12-15T00:11:01.613Z,20.66
2017-12-15T00:12:01.594Z,20.61
2017-12-15T00:13:01.575Z,20.52
2017-12-15T00:14:01.525Z,20.58
2017-12-15T00:15:01.514Z,20.57
2017-12-15T00:16:01.500Z,20.58
2017-12-15T00:17:01.491Z,20.58
2017-12-15T00:18:01.455Z,20.58
2017-12-15T00:19:01.426Z,20.48
2017-12-15T00:20:01.420Z,20.50
2017-12-15T00:21:01.394Z,20.42
2017-12-15T00:22:01.380Z,20.51
2017-12-15T00:23:01.376Z,20.43
2017-12-15T00:24:01.325Z,20.42
2017-12-15T00:25:01.317Z,20.47
2017-12-15T00:26:01.287Z,20.39
2017-12-15T00:27:01.280Z,20.43
2017-12-15T00:28:01.252Z,20.58
2017-12-15T00:29:01.244Z,20.55
2017-12-15T00:30:01.235Z,20.58
2017-12-15T00:31:01.221Z,20.50
2017-12-15T00:32:01.173Z,20.52
2017-12-15T00:33:01.182Z,20.52
2017-12-15T00:34:01.155Z,20.51
2017-12-15T00:35:01.116Z,20.48
2017-12-15T00:36:01.097Z,20.50
2017-12-15T00:37:01.074Z,20.35
2017-12-15T00:38:01.079Z,20.43
2017-12-15T00:39:01.034Z,20.43
2017-12-15T00:40:01.011Z,20.41
2017-12-15T00:41:00.990Z,20.29
2017-12-15T00:42:00.972Z,20.28
2017-12-15T00:43:00.960Z,20.23
2017-12-15T00:44:00.931Z,20.26
2017-12-15T00:45:00.911Z,20.23
2017-12-15T00:46:00.894Z,20.28
2017-12-15T00:47:00.875Z,20.28
2017-12-15T00:48:00.884Z,20.29
2017-12-15T00:49:00.864Z,20.31
2017-12-15T00:50:00.815Z,20.21
2017-12-15T00:51:00.799Z,20.31
2017-12-15T00:52:00.772Z,20.35
2017-12-15T00:53:00.780Z,20.31
2017-12-15T00:54:00.735Z,20.29
2017-12-15T00:55:00.723Z,20.23
2017-12-15T00:56:00.701Z,20.28
2017-12-15T00:57:00.675Z,20.29
2017-12-15T00:58:00.683Z,20.29
2017-12-15T00:59:00.636Z,20.32
2017-12-15T01:00:00.644Z,20.29
2017-12-15T01:01:00.596Z,20.29
2017-12-15T01:02:00.599Z,20.26
2017-12-15T01:03:00.753Z,20.26
2017-12-15T01:04:00.539Z,20.26
2017-12-15T01:05:00.515Z,20.31
2017-12-15T01:06:00.495Z,20.38
2017-12-15T01:07:00.500Z,20.32
2017-12-15T01:08:00.454Z,20.42
2017-12-15T01:09:00.438Z,20.43
2017-12-15T01:10:00.442Z,20.43
2017-12-15T01:11:00.420Z,20.35
2017-12-15T01:12:00.403Z,20.33
2017-12-15T01:13:00.371Z,20.31
2017-12-15T01:14:00.337Z,20.28
2017-12-15T01:15:00.314Z,20.24
2017-12-15T01:16:00.303Z,20.26
2017-12-15T01:17:00.310Z,20.20
2017-12-15T01:18:00.284Z,20.21
2017-12-15T01:19:00.264Z,20.17
2017-12-15T01:20:00.216Z,20.17
2017-12-15T01:21:00.207Z,20.23
2017-12-15T01:22:00.186Z,20.21
2017-12-15T01:23:00.168Z,20.23
2017-12-15T01:24:00.148Z,20.17
2017-12-15T01:25:00.148Z,20.20
2017-12-15T01:26:00.124Z,20.20
2017-12-15T01:27:00.076Z,20.20
2017-12-15T01:28:00.070Z,20.17
2017-12-15T01:29:00.042Z,20.17
2017-12-15T01:30:00.016Z,20.06
2017-12-15T01:30:59.995Z,20.11
2017-12-15T01:31:59.977Z,19.98
2017-12-15T01:32:59.965Z,19.98
2017-12-15T01:33:59.944Z,19.92
2017-12-15T01:34:59.919Z,19.99
2017-12-15T01:35:59.903Z,20.01
2017-12-15T01:36:59.875Z,19.96
2017-12-15T01:37:59.854Z,19.96
2017-12-15T01:38:59.840Z,20.11
2017-12-15T01:39:59.844Z,20.05
2017-12-15T01:40:59.827Z,20.08
2017-12-15T01:41:59.777Z,20.21
2017-12-15T01:42:59.763Z,20.18
2017-12-15T01:43:59.764Z,20.18
2017-12-15T01:44:59.726Z,20.26
2017-12-15T01:45:59.703Z,20.31
2017-12-15T01:46:59.676Z,20.29
2017-12-15T01:47:59.655Z,20.32
2017-12-15T01:48:59.647Z,20.39
2017-12-15T01:49:59.616Z,20.41
2017-12-15T01:50:59.622Z,20.50
2017-12-15T01:51:59.581Z,20.47
2017-12-15T01:52:59.584Z,20.39
2017-12-15T01:53:59.562Z,20.48
2017-12-15T01:54:59.523Z,20.50
2017-12-15T01:55:59.524Z,20.50
2017-12-15T01:56:59.472Z,20.42
2017-12-15T01:57:59.456Z,20.43
2017-12-15T01:58:59.464Z,20.32
2017-12-15T01:59:59.442Z,20.28
2017-12-15T02:00:59.398Z,20.24
2017-12-15T02:01:59.406Z,20.26
2017-12-15T02:02:59.358Z,20.16
2017-12-15T02:03:59.341Z,20.05
2017-12-15T02:04:59.316Z,20.03
2017-12-15T02:05:59.308Z,19.91
2017-12-15T02:06:59.285Z,19.87
2017-12-15T02:07:59.256Z,19.86
2017-12-15T02:08:59.239Z,19.86
2017-12-15T02:09:59.217Z,19.78
2017-12-15T02:10:59.200Z,19.83
2017-12-15T02:11:59.207Z,19.78
2017-12-15T02:12:59.189Z,19.71
2017-12-15T02:13:59.163Z,19.56
2017-12-15T02:14:59.120Z,19.63
2017-12-15T02:15:59.106Z,19.54
2017-12-15T02:16:59.080Z,19.54
2017-12-15T02:17:59.085Z,19.56
2017-12-15T02:18:59.040Z,19.68
2017-12-15T02:19:59.020Z,19.65
2017-12-15T02:20:59.000Z,19.74
2017-12-15T02:21:58.976Z,19.76
2017-12-15T02:22:58.988Z,19.77
2017-12-15T02:23:58.937Z,19.86
2017-12-15T02:24:58.917Z,19.77
2017-12-15T02:25:58.923Z,19.77
2017-12-15T02:26:58.903Z,19.77
2017-12-15T02:27:58.885Z,19.86
2017-12-15T02:28:58.840Z,19.86
2017-12-15T02:29:58.849Z,19.91
2017-12-15T02:30:58.824Z,19.99
2017-12-15T02:31:58.806Z,19.98
2017-12-15T02:32:58.791Z,19.99
2017-12-15T02:33:58.764Z,20.01
2017-12-15T02:34:58.747Z,20.03
2017-12-15T02:35:58.708Z,19.95
2017-12-15T02:36:58.709Z,19.95
2017-12-15T02:37:58.662Z,20.01
2017-12-15T02:38:58.653Z,19.92
2017-12-15T02:39:58.617Z,20.01
2017-12-15T02:40:58.600Z,19.96
2017-12-15T02:41:58.592Z,20.01
2017-12-15T02:42:58.587Z,20.03
2017-12-15T02:43:58.540Z,20.17
2017-12-15T02:44:58.514Z,20.06
2017-12-15T02:45:58.495Z,20.14
2017-12-15T02:46:58.505Z,20.06
2017-12-15T02:47:58.459Z,20.17
2017-12-15T02:48:58.448Z,20.14
2017-12-15T02:49:58.445Z,20.21
2017-12-15T02:50:58.437Z,20.26
2017-12-15T02:51:58.392Z,20.26
2017-12-15T02:52:58.383Z,20.31
2017-12-15T02:53:58.335Z,20.26
2017-12-15T02:54:58.316Z,20.28
2017-12-15T02:55:58.338Z,20.31
2017-12-15T02:56:58.285Z,20.33
2017-12-15T02:57:58.259Z,20.38
2017-12-15T02:58:58.266Z,20.41
2017-12-15T02:59:58.220Z,20.43
2017-12-15T03:00:58.208Z,20.47
2017-12-15T03:01:58.176Z,20.43
2017-12-15T03:02:58.160Z,20.43
2017-12-15T03:03:58.138Z,20.50
2017-12-15T03:04:58.142Z,20.51
2017-12-15T03:05:58.126Z,20.58
2017-12-15T03:06:58.088Z,20.48
2017-12-15T03:07:58.065Z,20.43
2017-12-15T03:08:58.039Z,20.41
2017-12-15T03:09:58.030Z,20.33
2017-12-15T03:10:58.025Z,20.38
2017-12-15T03:11:57.977Z,20.41
2017-12-15T03:12:57.964Z,20.32
2017-12-15T03:13:57.945Z,20.41
2017-12-15T03:14:57.920Z,20.38
2017-12-15T03:15:57.897Z,20.35
2017-12-15T03:16:57.879Z,20.43
2017-12-15T03:17:57.875Z,20.36
2017-12-15T03:18:57.870Z,20.42
2017-12-15T03:19:57.847Z,20.29
2017-12-15T03:20:57.829Z,20.35
2017-12-15T03:21:57.803Z,20.43
2017-12-15T03:22:57.786Z,20.38
2017-12-15T03:23:57.767Z,20.28
2017-12-15T03:24:57.745Z,20.24
2017-12-15T03:25:57.727Z,20.28
2017-12-15T03:26:57.677Z,20.28
2017-12-15T03:27:57.686Z,20.31
2017-12-15T03:28:57.663Z,20.23
2017-12-15T03:29:57.621Z,20.26
2017-12-15T03:30:57.608Z,20.24
2017-12-15T03:31:57.577Z,20.32
2017-12-15T03:32:58.215Z,20.32
2017-12-15T03:33:57.538Z,20.29
2017-12-15T03:34:57.525Z,20.32
2017-12-15T03:35:57.506Z,20.26
2017-12-15T03:36:57.480Z,20.29
2017-12-15T03:37:57.457Z,20.26
2017-12-15T03:38:57.438Z,20.24
2017-12-15T03:39:57.421Z,20.16
2017-12-15T03:40:57.526Z,20.10
2017-12-15T03:41:57.382Z,20.10
2017-12-15T03:42:57.384Z,20.17
2017-12-15T03:43:57.338Z,20.18
2017-12-15T03:44:57.323Z,20.10
2017-12-15T03:45:57.329Z,20.10
2017-12-15T03:46:57.323Z,20.13
2017-12-15T03:47:57.277Z,20.10
2017-12-15T03:48:57.245Z,20.11
2017-12-15T03:49:57.328Z,20.11
2017-12-15T03:50:57.210Z,20.10
2017-12-15T03:51:57.191Z,20.18
2017-12-15T03:52:57.170Z,20.13
2017-12-15T03:53:57.151Z,20.14
2017-12-15T03:54:57.141Z,20.17
2017-12-15T03:55:57.101Z,20.06
2017-12-15T03:56:57.095Z,20.10
2017-12-15T03:57:57.063Z,20.20
2017-12-15T03:58:57.043Z,20.21
2017-12-15T03:59:57.025Z,20.31
2017-12-15T04:00:57.027Z,20.32
2017-12-15T04:01:57.008Z,20.31
2017-12-15T04:02:56.956Z,20.48
2017-12-15T04:03:56.940Z,20.48
2017-12-15T04:04:56.929Z,20.48
2017-12-15T04:05:56.899Z,20.52
2017-12-15T04:06:56.884Z,20.48
2017-12-15T04:07:56.886Z,20.50
2017-12-15T04:08:56.872Z,20.48
2017-12-15T04:09:56.845Z,20.43
2017-12-15T04:10:56.805Z,20.36
2017-12-15T04:11:56.780Z,20.41
2017-12-15T04:12:56.762Z,20.29
2017-12-15T04:13:56.768Z,20.31
2017-12-15T04:14:56.719Z,20.33
2017-12-15T04:15:56.700Z,20.41
2017-12-15T04:16:56.679Z,20.39
2017-12-15T04:17:56.675Z,20.33
2017-12-15T04:18:56.645Z,20.32
2017-12-15T04:19:56.648Z,20.31
2017-12-15T04:20:56.598Z,20.32
2017-12-15T04:21:56.580Z,20.33
2017-12-15T04:22:56.566Z,20.21
2017-12-15T04:23:56.550Z,20.29
2017-12-15T04:24:56.512Z,20.20
2017-12-15T04:25:56.513Z,20.31
2017-12-15T04:26:56.476Z,20.28
2017-12-15T04:27:56.470Z,20.26
2017-12-15T04:28:56.447Z,20.28
2017-12-15T04:29:56.420Z,20.28
2017-12-15T04:30:56.395Z,20.35
2017-12-15T04:31:56.405Z,20.43
2017-12-15T04:32:56.355Z,20.41
2017-12-15T04:33:56.338Z,20.47
2017-12-15T04:34:56.315Z,20.43
2017-12-15T04:35:56.297Z,20.26
2017-12-15T04:36:56.299Z,20.28
2017-12-15T04:37:56.269Z,20.24
2017-12-15T04:38:56.238Z,20.24
2017-12-15T04:39:56.242Z,20.17
2017-12-15T04:40:56.203Z,20.08
2017-12-15T04:41:56.201Z,20.10
2017-12-15T04:42:56.180Z,20.21
2017-12-15T04:43:56.140Z,20.18
2017-12-15T04:45:29.352Z,20.21
2017-12-15T04:45:56.668Z,20.24
2017-12-15T04:46:56.081Z,20.21
2017-12-15T04:47:56.055Z,20.20
2017-12-15T04:48:56.036Z,20.16
2017-12-15T04:49:56.038Z,20.11
2017-12-15T04:50:56.018Z,20.06
2017-12-15T04:51:55.974Z,20.13
2017-12-15T04:52:55.947Z,20.10
2017-12-15T04:53:55.955Z,20.01
2017-12-15T04:54:55.934Z,20.10
2017-12-15T04:55:55.915Z,20.02
2017-12-15T04:56:55.883Z,19.96
2017-12-15T04:57:55.874Z,20.08
2017-12-15T04:58:55.856Z,20.06
2017-12-15T04:59:55.834Z,20.11
2017-12-15T05:00:56.351Z,20.13
2017-12-15T05:01:55.769Z,20.18
2017-12-15T05:02:55.777Z,20.11
2017-12-15T05:03:55.753Z,20.17
2017-12-15T05:04:55.703Z,20.11
2017-12-15T05:05:55.701Z,20.05
2017-12-15T05:06:55.662Z,20.10
2017-12-15T05:07:55.646Z,20.11
2017-12-15T05:08:55.636Z,20.06
2017-12-15T05:09:55.608Z,20.14
2017-12-15T05:10:55.620Z,20.10
2017-12-15T05:11:55.580Z,20.21
2017-12-15T05:12:55.543Z,20.13
2017-12-15T05:13:55.555Z,20.16
2017-12-15T05:14:55.511Z,20.20
2017-12-15T05:15:55.484Z,20.23
2017-12-15T05:16:55.470Z,20.28
2017-12-15T05:17:55.469Z,20.24
2017-12-15T05:18:55.455Z,20.23
2017-12-15T05:19:55.419Z,20.31
2017-12-15T05:20:55.411Z,20.24
2017-12-15T05:21:55.391Z,20.21
2017-12-15T05:22:55.354Z,20.20
2017-12-15T05:23:55.330Z,20.28
2017-12-15T05:24:55.330Z,20.26
2017-12-15T05:25:55.296Z,20.32
2017-12-15T05:26:55.290Z,20.24
2017-12-15T05:27:55.268Z,20.33
2017-12-15T05:28:55.249Z,20.21
2017-12-15T05:29:55.228Z,20.24
2017-12-15T05:30:55.194Z,20.28
2017-12-15T05:31:55.170Z,20.20
2017-12-15T05:32:55.167Z,20.06
2017-12-15T05:33:55.145Z,20.21
2017-12-15T05:34:55.127Z,20.06
2017-12-15T05:35:55.107Z,20.11
2017-12-15T05:36:55.058Z,20.16
2017-12-15T05:37:55.040Z,20.20
2017-12-15T05:38:55.043Z,20.17
2017-12-15T05:39:55.030Z,20.18
2017-12-15T05:40:55.002Z,20.24
2017-12-15T05:41:54.984Z,20.23
2017-12-15T05:42:54.936Z,20.18
2017-12-15T05:43:54.920Z,20.08
2017-12-15T05:44:54.924Z,20.10
2017-12-15T05:45:54.904Z,20.01
2017-12-15T05:46:54.858Z,19.94
2017-12-15T05:47:54.832Z,19.96
2017-12-15T05:48:54.847Z,20.13
2017-12-15T05:49:54.825Z,20.06
2017-12-15T05:50:54.775Z,20.20
2017-12-15T05:51:54.887Z,20.21
2017-12-15T05:52:54.745Z,20.10
2017-12-15T05:53:54.712Z,20.10
2017-12-15T05:54:54.692Z,20.17
2017-12-15T05:55:54.701Z,20.16
2017-12-15T05:56:54.663Z,20.26
2017-12-15T05:57:54.671Z,20.32
2017-12-15T05:58:54.638Z,20.23
2017-12-15T05:59:54.651Z,20.14
2017-12-15T06:00:54.574Z,20.06
2017-12-15T06:01:54.560Z,19.95
2017-12-15T06:02:54.532Z,19.99
2017-12-15T06:03:54.539Z,19.86
2017-12-15T06:04:54.492Z,19.81
2017-12-15T06:05:54.484Z,19.86
2017-12-15T06:06:54.450Z,20.02
2017-12-15T06:07:54.442Z,19.96
2017-12-15T06:08:54.437Z,20.02
2017-12-15T06:09:54.421Z,20.01
2017-12-15T06:10:54.371Z,20.06
2017-12-15T06:11:54.356Z,20.13
2017-12-15T06:12:54.352Z,20.11
2017-12-15T06:13:54.307Z,20.02
2017-12-15T06:14:54.287Z,19.98
2017-12-15T06:15:54.276Z,19.86
2017-12-15T06:16:54.274Z,19.84
2017-12-15T06:17:54.228Z,19.84
2017-12-15T06:18:54.209Z,19.87
2017-12-15T06:19:54.185Z,19.78
2017-12-15T06:20:54.179Z,19.76
2017-12-15T06:21:54.144Z,19.74
2017-12-15T06:22:54.128Z,19.76
2017-12-15T06:23:54.107Z,19.78
2017-12-15T06:24:54.087Z,19.71
2017-12-15T06:25:54.063Z,19.71
2017-12-15T06:26:54.072Z,19.73
2017-12-15T06:27:54.030Z,19.63
2017-12-15T06:28:54.028Z,19.68
2017-12-15T06:29:54.011Z,19.78
2017-12-15T06:30:53.965Z,19.76
2017-12-15T06:31:53.966Z,19.73
2017-12-15T06:32:53.923Z,19.80
2017-12-15T06:33:53.932Z,19.74
2017-12-15T06:34:53.908Z,19.76
2017-12-15T06:35:53.886Z,19.68
2017-12-15T06:36:53.863Z,19.62
2017-12-15T06:37:53.826Z,19.62
2017-12-15T06:38:53.823Z,19.47
2017-12-15T06:39:53.804Z,19.56
2017-12-15T06:40:53.789Z,19.47
2017-12-15T06:41:53.763Z,19.46
2017-12-15T06:42:53.712Z,19.39
2017-12-15T06:43:53.696Z,19.37
2017-12-15T06:44:53.700Z,19.40
2017-12-15T06:45:53.656Z,19.37
2017-12-15T06:46:53.642Z,19.40
2017-12-15T06:47:53.616Z,19.33
2017-12-15T06:48:53.596Z,19.39
2017-12-15T06:49:53.578Z,19.40
2017-12-15T06:50:53.551Z,19.36
2017-12-15T06:51:53.532Z,19.39
2017-12-15T06:52:53.509Z,19.40
2017-12-15T06:53:53.493Z,19.37
2017-12-15T06:54:53.470Z,19.32
2017-12-15T06:55:53.454Z,19.32
2017-12-15T06:56:53.461Z,19.32
2017-12-15T06:57:53.411Z,19.22
2017-12-15T06:58:53.388Z,19.28
2017-12-15T06:59:53.367Z,19.23
2017-12-15T07:00:53.371Z,19.25
2017-12-15T07:01:53.368Z,19.23
2017-12-15T07:02:53.312Z,19.28
2017-12-15T07:03:53.297Z,19.25
2017-12-15T07:04:53.293Z,19.21
2017-12-15T07:05:53.240Z,19.16
2017-12-15T07:06:53.227Z,19.16
2017-12-15T07:07:53.201Z,19.16
2017-12-15T07:08:53.300Z,19.08
2017-12-15T07:09:53.160Z,19.11
2017-12-15T07:10:53.143Z,19.08
2017-12-15T07:11:53.148Z,19.00
2017-12-15T07:12:53.097Z,19.02
2017-12-15T07:13:53.085Z,19.06
2017-12-15T07:14:53.064Z,19.00
2017-12-15T07:15:53.041Z,18.99
2017-12-15T07:16:53.044Z,18.91
2017-12-15T07:17:52.998Z,18.94
2017-12-15T07:18:52.999Z,18.94
2017-12-15T07:19:52.983Z,18.92
2017-12-15T07:20:52.934Z,18.85
2017-12-15T07:21:52.938Z,18.85
2017-12-15T07:22:52.917Z,18.87
2017-12-15T07:23:52.899Z,18.84
2017-12-15T07:24:52.849Z,18.98
2017-12-15T07:25:52.826Z,18.94
2017-12-15T07:26:52.810Z,18.88
2017-12-15T07:27:52.807Z,18.80
2017-12-15T07:28:52.769Z,18.81
2017-12-15T07:29:52.773Z,18.91
2017-12-15T07:30:52.733Z,18.85
2017-12-15T07:31:52.731Z,18.94
2017-12-15T07:32:52.697Z,19.07
2017-12-15T07:33:52.691Z,18.99
2017-12-15T07:34:52.641Z,19.00
2017-12-15T07:35:52.624Z,19.04
2017-12-15T07:36:52.628Z,19.10
2017-12-15T07:37:52.612Z,19.08
2017-12-15T07:38:52.559Z,19.10
2017-12-15T07:39:52.571Z,19.16
2017-12-15T07:40:52.518Z,19.18
2017-12-15T07:41:52.505Z,19.14
2017-12-15T07:42:52.483Z,19.18
2017-12-15T07:43:52.467Z,19.14
2017-12-15T07:44:52.442Z,19.10
2017-12-15T07:45:52.413Z,18.98
2017-12-15T07:46:52.392Z,19.00
2017-12-15T07:47:52.384Z,19.10
2017-12-15T07:48:52.366Z,19.04
2017-12-15T07:49:52.352Z,19.13
2017-12-15T07:50:52.321Z,19.02
2017-12-15T07:51:52.289Z,19.07
2017-12-15T07:52:52.272Z,19.07
2017-12-15T07:53:52.250Z,19.06
2017-12-15T07:54:52.226Z,19.02
2017-12-15T07:55:52.218Z,19.04
2017-12-15T07:56:52.196Z,19.04
2017-12-15T07:57:52.172Z,18.94
2017-12-15T07:58:52.146Z,18.98
2017-12-15T07:59:52.125Z,18.85
2017-12-15T08:00:52.126Z,18.84
2017-12-15T08:01:52.108Z,18.84
2017-12-15T08:02:52.091Z,18.81
2017-12-15T08:03:52.052Z,18.81
2017-12-15T08:04:52.045Z,18.87
2017-12-15T08:05:51.999Z,18.99
2017-12-15T08:06:52.007Z,18.94
2017-12-15T08:07:51.968Z,18.98
2017-12-15T08:08:51.933Z,18.95
2017-12-15T08:09:51.932Z,19.00
2017-12-15T08:10:51.907Z,18.92
2017-12-15T08:11:51.872Z,18.81
2017-12-15T08:12:51.869Z,18.78
2017-12-15T08:13:51.861Z,18.66
2017-12-15T08:14:51.834Z,18.70
2017-12-15T08:15:51.790Z,18.69
2017-12-15T08:16:51.777Z,18.63
2017-12-15T08:17:51.748Z,18.72
2017-12-15T08:18:51.749Z,18.75
2017-12-15T08:19:51.706Z,18.78
2017-12-15T08:20:51.710Z,18.75
2017-12-15T08:21:51.689Z,18.88
2017-12-15T08:22:51.669Z,18.90
2017-12-15T08:23:51.616Z,18.92
2017-12-15T08:24:51.598Z,19.06
2017-12-15T08:25:51.604Z,19.10
2017-12-15T08:26:51.558Z,19.23
2017-12-15T08:27:51.536Z,19.23
2017-12-15T08:28:51.543Z,19.37
2017-12-15T08:29:51.527Z,19.55
2017-12-15T08:30:51.481Z,19.58
2017-12-15T08:31:51.461Z,19.68
2017-12-15T08:32:51.447Z,19.77
2017-12-15T08:33:51.439Z,19.84
2017-12-15T08:34:51.423Z,20.08
2017-12-15T08:35:51.383Z,20.23
2017-12-15T08:36:51.349Z,20.29
2017-12-15T08:37:51.355Z,20.51
2017-12-15T08:38:51.316Z,20.57
2017-12-15T08:39:51.315Z,20.61
2017-12-15T08:40:51.301Z,20.69
2017-12-15T08:41:51.260Z,20.77
2017-12-15T08:42:51.239Z,20.77
2017-12-15T08:43:51.215Z,20.91
2017-12-15T08:44:51.200Z,20.98
2017-12-15T08:45:51.167Z,21.03
2017-12-15T08:46:51.177Z,21.12
2017-12-15T08:47:51.128Z,21.06
2017-12-15T08:48:51.112Z,21.07
2017-12-15T08:49:51.092Z,21.12
2017-12-15T08:50:51.102Z,21.16
2017-12-15T08:51:51.079Z,21.28
2017-12-15T08:52:51.056Z,21.27
2017-12-15T08:53:51.013Z,21.38
2017-12-15T08:54:51.003Z,21.42
2017-12-15T08:55:50.972Z,21.46
2017-12-15T08:56:50.981Z,21.53
2017-12-15T08:57:50.944Z,21.69
2017-12-15T08:58:50.941Z,21.83
2017-12-15T08:59:50.900Z,21.72
2017-12-15T09:00:50.875Z,21.75
2017-12-15T09:01:50.870Z,21.82
2017-12-15T09:02:50.842Z,21.91
2017-12-15T09:03:50.836Z,21.96
2017-12-15T09:04:50.833Z,21.99
2017-12-15T09:05:50.779Z,22.12
2017-12-15T09:06:50.780Z,22.06
2017-12-15T09:07:50.746Z,22.22
2017-12-15T09:08:50.755Z,22.14
2017-12-15T09:09:50.708Z,22.24
2017-12-15T09:10:50.692Z,22.21
2017-12-15T09:11:50.700Z,22.25
2017-12-15T09:12:50.661Z,22.28
2017-12-15T09:13:50.646Z,22.17
2017-12-15T09:14:50.624Z,22.24
2017-12-15T09:15:50.600Z,22.21
2017-12-15T09:16:50.613Z,22.09
2017-12-15T09:17:50.564Z,22.17
2017-12-15T09:18:50.544Z,22.10
2017-12-15T09:19:50.530Z,22.03
2017-12-15T09:20:50.537Z,22.07
2017-12-15T09:21:50.490Z,22.02
2017-12-15T09:22:50.472Z,22.12
2017-12-15T09:23:50.483Z,22.20
2017-12-15T09:24:50.436Z,22.09
2017-12-15T09:25:50.423Z,22.20
2017-12-15T09:26:50.530Z,22.24
2017-12-15T09:27:50.398Z,22.42
2017-12-15T09:28:50.372Z,22.60
2017-12-15T09:29:50.356Z,22.80
2017-12-15T09:30:50.368Z,23.02
2017-12-15T09:31:50.318Z,23.05
2017-12-15T09:32:50.321Z,23.07
2017-12-15T09:33:50.291Z,23.22
2017-12-15T09:34:50.291Z,23.47
2017-12-15T09:35:50.277Z,23.69
2017-12-15T09:36:50.260Z,23.98
2017-12-15T09:37:50.215Z,24.15
2017-12-15T09:38:50.194Z,24.37
2017-12-15T09:39:50.207Z,24.69
2017-12-15T09:40:50.186Z,24.73
2017-12-15T09:41:50.170Z,24.81
2017-12-15T09:42:50.157Z,24.77
2017-12-15T09:43:50.146Z,24.69
2017-12-15T09:44:50.122Z,24.61
2017-12-15T09:45:50.184Z,24.25
2017-12-15T09:46:50.089Z,24.27
2017-12-15T09:47:50.053Z,24.20
2017-12-15T09:48:50.062Z,24.12
2017-12-15T09:49:50.025Z,24.18
2017-12-15T09:50:50.017Z,24.16
2017-12-15T09:51:49.988Z,24.31
2017-12-15T09:52:50.002Z,24.35
2017-12-15T09:53:49.979Z,24.40
2017-12-15T09:54:49.963Z,24.57
2017-12-15T09:55:49.934Z,24.83
2017-12-15T09:56:49.908Z,25.00
2017-12-15T09:57:49.900Z,25.15
2017-12-15T09:58:49.885Z,25.15
2017-12-15T09:59:49.864Z,25.20
2017-12-15T10:00:49.858Z,25.55
2017-12-15T10:01:49.833Z,25.79
2017-12-15T10:02:49.826Z,25.69
2017-12-15T10:03:49.812Z,25.57
2017-12-15T10:04:49.787Z,25.69
2017-12-15T10:05:49.780Z,25.54
2017-12-15T10:06:49.760Z,25.57
2017-12-15T10:07:49.770Z,25.57
2017-12-15T10:08:49.728Z,25.55
2017-12-15T10:09:49.717Z,25.35
2017-12-15T10:10:49.713Z,25.03
2017-12-15T10:11:49.683Z,25.38
2017-12-15T10:12:49.669Z,25.43
2017-12-15T10:13:49.680Z,25.58
2017-12-15T10:14:49.665Z,25.40
2017-12-15T10:15:49.634Z,25.55
2017-12-15T10:16:49.624Z,25.57
2017-12-15T10:17:49.624Z,25.54
2017-12-15T10:18:49.583Z,25.45
2017-12-15T10:19:49.565Z,25.17
2017-12-15T10:20:49.566Z,25.35
2017-12-15T10:21:49.542Z,25.60
2017-12-15T10:22:49.550Z,25.39
2017-12-15T10:23:49.523Z,25.60
2017-12-15T10:24:49.529Z,25.50
2017-12-15T10:25:49.487Z,25.58
2017-12-15T10:26:49.470Z,25.58
2017-12-15T10:27:49.458Z,25.35
2017-12-15T10:28:49.445Z,25.51
2017-12-15T10:29:49.459Z,25.62
2017-12-15T10:30:49.412Z,25.58
2017-12-15T10:31:49.406Z,25.70
2017-12-15T10:32:49.397Z,25.99
2017-12-15T10:33:49.935Z,26.43
2017-12-15T10:34:49.382Z,26.39
2017-12-15T10:35:49.369Z,26.57
2017-12-15T10:36:49.347Z,26.57
2017-12-15T10:37:49.318Z,26.17
2017-12-15T10:38:49.304Z,26.02
2017-12-15T10:39:49.296Z,25.83
2017-12-15T10:40:49.315Z,26.18
2017-12-15T10:41:49.272Z,26.45
2017-12-15T10:42:49.262Z,26.70
2017-12-15T10:43:49.233Z,26.87
2017-12-15T10:44:49.223Z,26.65
2017-12-15T10:45:49.207Z,26.20
2017-12-15T10:46:49.219Z,25.99
2017-12-15T10:47:49.177Z,26.06
2017-12-15T10:48:49.196Z,26.07
2017-12-15T10:49:49.157Z,26.13
2017-12-15T10:50:49.155Z,26.10
2017-12-15T10:51:49.126Z,26.25
2017-12-15T10:52:49.182Z,26.50
2017-12-15T10:53:49.102Z,26.69
2017-12-15T10:54:49.118Z,27.21
2017-12-15T10:55:49.080Z,27.22
2017-12-15T10:56:49.071Z,27.18
2017-12-15T10:57:49.074Z,26.80
2017-12-15T10:58:49.062Z,26.69
2017-12-15T10:59:49.022Z,26.52
2017-12-15T11:00:49.032Z,26.43
2017-12-15T11:01:48.996Z,26.17
2017-12-15T11:02:49.006Z,26.20
2017-12-15T11:03:48.983Z,26.05
2017-12-15T11:04:48.956Z,26.17
2017-12-15T11:05:48.970Z,26.36
2017-12-15T11:06:48.936Z,26.52
2017-12-15T11:07:48.921Z,27.00
2017-12-15T11:08:48.932Z,27.31
2017-12-15T11:09:48.916Z,27.72
2017-12-15T11:10:48.903Z,27.75
2017-12-15T11:11:48.876Z,27.49
2017-12-15T11:12:48.855Z,27.24
2017-12-15T11:13:48.866Z,26.94
2017-12-15T11:14:48.851Z,26.88
2017-12-15T11:15:48.811Z,26.70
2017-12-15T11:16:48.798Z,26.99
2017-12-15T11:17:48.814Z,27.03
2017-12-15T11:18:48.780Z,27.44
2017-12-15T11:19:48.786Z,27.54
2017-12-15T11:20:48.776Z,27.46
2017-12-15T11:21:48.763Z,27.49
2017-12-15T11:22:48.722Z,27.49
2017-12-15T11:23:48.744Z,27.47
2017-12-15T11:24:48.699Z,27.34
2017-12-15T11:25:48.693Z,27.22
2017-12-15T11:26:48.692Z,26.99
2017-12-15T11:27:48.683Z,27.07
2017-12-15T11:28:48.660Z,26.76
2017-12-15T11:29:48.639Z,26.80
2017-12-15T11:30:48.636Z,27.03
2017-12-15T11:31:48.624Z,27.03
2017-12-15T11:32:48.601Z,27.40
2017-12-15T11:33:48.607Z,27.47
2017-12-15T11:34:48.588Z,27.03
2017-12-15T11:35:48.594Z,26.84
2017-12-15T11:36:48.562Z,27.02
2017-12-15T11:37:48.568Z,27.22
2017-12-15T11:38:48.562Z,27.25
2017-12-15T11:39:48.523Z,27.02
2017-12-15T11:40:48.518Z,26.89
2017-12-15T11:41:48.486Z,27.12
2017-12-15T11:42:48.504Z,27.09
2017-12-15T11:43:48.462Z,27.32
2017-12-15T11:44:48.461Z,27.72
2017-12-15T11:45:48.467Z,27.69
2017-12-15T11:46:48.458Z,27.69
2017-12-15T11:47:48.428Z,27.60
2017-12-15T11:48:48.434Z,27.51
2017-12-15T11:49:48.406Z,27.43
2017-12-15T11:50:48.385Z,27.47
2017-12-15T11:51:48.396Z,27.51
2017-12-15T11:52:48.391Z,27.70
2017-12-15T11:53:48.350Z,27.81
2017-12-15T11:54:48.337Z,27.82
2017-12-15T11:55:48.333Z,27.66
2017-12-15T11:56:48.342Z,27.69
2017-12-15T11:57:48.308Z,27.74
2017-12-15T11:58:48.291Z,28.02
2017-12-15T11:59:48.296Z,28.03
2017-12-15T12:00:48.268Z,28.03
2017-12-15T12:01:48.292Z,27.78
2017-12-15T12:02:48.246Z,27.50
2017-12-15T12:03:48.235Z,27.47
2017-12-15T12:04:48.252Z,27.54
2017-12-15T12:05:48.221Z,27.88
2017-12-15T12:06:48.210Z,27.87
2017-12-15T12:07:48.200Z,27.90
2017-12-15T12:08:48.187Z,28.14
2017-12-15T12:09:48.189Z,28.17
2017-12-15T12:10:48.158Z,28.59
2017-12-15T12:11:48.172Z,28.66
2017-12-15T12:12:48.132Z,28.52
2017-12-15T12:13:48.155Z,28.27
2017-12-15T12:14:48.118Z,28.21
2017-12-15T12:15:48.113Z,28.34
2017-12-15T12:16:48.122Z,28.31
2017-12-15T12:17:48.101Z,28.56
2017-12-15T12:18:48.101Z,28.56
2017-12-15T12:19:48.077Z,28.52
2017-12-15T12:20:48.059Z,28.41
2017-12-15T12:21:48.052Z,28.07
2017-12-15T12:22:48.036Z,27.99
2017-12-15T12:23:48.028Z,27.88
2017-12-15T12:24:48.014Z,27.87
2017-12-15T12:25:48.035Z,27.75
2017-12-15T12:26:47.997Z,27.92
2017-12-15T12:27:48.014Z,27.70
2017-12-15T12:28:48.004Z,27.75
2017-12-15T12:29:47.992Z,27.77
2017-12-15T12:30:47.956Z,27.81
2017-12-15T12:31:47.954Z,28.14
2017-12-15T12:32:47.961Z,28.58
2017-12-15T12:33:47.924Z,28.80
2017-12-15T12:34:47.944Z,28.81
2017-12-15T12:35:47.927Z,28.73
2017-12-15T12:36:47.904Z,28.74
2017-12-15T12:37:47.884Z,28.86
2017-12-15T12:38:47.903Z,28.67
2017-12-15T12:39:47.861Z,28.58
2017-12-15T12:40:47.859Z,28.34
2017-12-15T12:41:47.841Z,28.46
2017-12-15T12:42:47.886Z,28.73
2017-12-15T12:43:47.851Z,28.74
2017-12-15T12:44:47.809Z,28.96
2017-12-15T12:45:47.960Z,29.14
2017-12-15T12:46:47.816Z,28.70
2017-12-15T12:47:47.808Z,28.86
2017-12-15T12:48:47.799Z,28.88
2017-12-15T12:49:47.772Z,29.04
2017-12-15T12:50:47.762Z,29.02
2017-12-15T12:51:47.884Z,28.90